createdAt,value
2018-11-11T00:01:47.633Z,9.90
2018-11-11T00:04:16.247Z,10.00
2018-11-11T00:06:44.810Z,9.90
2018-11-11T00:09:13.418Z,9.90
2018-11-11T00:11:41.949Z,9.90
2018-11-11T00:14:10.583Z,10.00
2018-11-11T00:16:39.351Z,10.00
2018-11-11T00:19:08.285Z,10.00
2018-11-11T00:21:36.932Z,10.00
2018-11-11T00:24:05.543Z,10.00
2018-11-11T00:26:34.219Z,10.00
2018-11-11T00:29:02.855Z,10.00
2018-11-11T00:31:31.346Z,10.00
2018-11-11T00:33:59.961Z,10.10
2018-11-11T00:36:28.575Z,10.10
2018-11-11T00:38:57.172Z,10.00
2018-11-11T00:41:25.811Z,10.10
2018-11-11T00:43:54.487Z,10.10
2018-11-11T00:46:23.094Z,10.10
2018-11-11T00:48:51.783Z,10.10
2018-11-11T00:51:20.359Z,10.10
2018-11-11T00:53:48.867Z,10.10
2018-11-11T00:56:17.456Z,10.10
2018-11-11T00:58:46.034Z,10.10
2018-11-11T01:01:14.763Z,10.00
2018-11-11T01:03:43.240Z,10.00
2018-11-11T01:06:11.882Z,10.00
2018-11-11T01:08:40.465Z,10.00
2018-11-11T01:11:09.027Z,10.00
2018-11-11T01:13:37.708Z,10.00
2018-11-11T01:16:06.521Z,10.00
2018-11-11T01:18:35.055Z,10.00
2018-11-11T01:21:03.719Z,10.00
2018-11-11T01:23:33.091Z,10.00
2018-11-11T01:26:01.722Z,10.10
2018-11-11T01:28:30.362Z,10.00
2018-11-11T01:30:59.016Z,10.00
2018-11-11T01:33:27.621Z,10.00
2018-11-11T01:35:56.219Z,10.00
2018-11-11T01:38:24.919Z,10.00
2018-11-11T01:40:53.542Z,10.00
2018-11-11T01:43:22.228Z,10.00
2018-11-11T01:45:50.899Z,10.00
2018-11-11T01:48:19.570Z,10.00
2018-11-11T01:50:48.183Z,10.00
2018-11-11T01:53:16.867Z,10.00
2018-11-11T01:55:45.530Z,9.90
2018-11-11T01:58:14.374Z,10.00
2018-11-11T02:00:42.906Z,10.00
2018-11-11T02:03:11.431Z,9.90
2018-11-11T02:05:40.056Z,9.90
2018-11-11T02:08:08.733Z,9.90
2018-11-11T02:10:37.443Z,9.90
2018-11-11T02:13:06.082Z,9.90
2018-11-11T02:15:34.698Z,9.90
2018-11-11T02:18:03.380Z,9.90
2018-11-11T02:20:31.938Z,9.90
2018-11-11T02:23:00.532Z,9.90
2018-11-11T02:25:29.155Z,10.00
2018-11-11T02:27:57.736Z,9.90
2018-11-11T02:30:26.463Z,9.90
2018-11-11T02:32:55.091Z,9.90
2018-11-11T02:35:23.735Z,9.90
2018-11-11T02:37:52.339Z,9.90
2018-11-11T02:40:21.070Z,9.90
2018-11-11T02:42:50.143Z,9.90
2018-11-11T02:45:19.643Z,9.90
2018-11-11T02:47:48.160Z,9.90
2018-11-11T02:50:17.670Z,9.90
2018-11-11T02:52:46.882Z,9.90
2018-11-11T02:55:15.989Z,9.80
2018-11-11T02:57:45.239Z,9.80
2018-11-11T03:00:17.195Z,9.80
2018-11-11T03:02:46.573Z,9.80
2018-11-11T03:05:16.142Z,9.80
2018-11-11T03:07:44.830Z,9.80
2018-11-11T03:10:14.399Z,9.80
2018-11-11T03:12:43.539Z,9.80
2018-11-11T03:15:13.154Z,9.80
2018-11-11T03:17:41.777Z,9.80
2018-11-11T03:20:11.419Z,9.80
2018-11-11T03:22:40.047Z,9.80
2018-11-11T03:25:10.019Z,9.80
2018-11-11T03:27:38.874Z,9.80
2018-11-11T03:30:08.875Z,9.80
2018-11-11T03:32:37.707Z,9.80
2018-11-11T03:35:08.307Z,9.80
2018-11-11T03:37:36.892Z,9.80
2018-11-11T03:40:08.927Z,9.70
2018-11-11T03:42:37.557Z,9.70
2018-11-11T03:45:07.451Z,9.70
2018-11-11T03:47:36.243Z,9.70
2018-11-11T03:50:06.007Z,9.70
2018-11-11T03:52:34.560Z,9.80
2018-11-11T03:55:03.122Z,9.70
2018-11-11T03:57:31.634Z,9.70
2018-11-11T04:00:00.407Z,9.70
2018-11-11T04:02:28.942Z,9.70
2018-11-11T04:04:57.614Z,9.70
2018-11-11T04:07:26.232Z,9.70
2018-11-11T04:09:54.783Z,9.70
2018-11-11T04:12:23.479Z,9.70
2018-11-11T04:14:52.176Z,9.70
2018-11-11T04:17:20.792Z,9.70
2018-11-11T04:19:49.499Z,9.70
2018-11-11T04:22:19.225Z,9.70
2018-11-11T04:24:51.829Z,9.70
2018-11-11T04:27:20.686Z,9.70
2018-11-11T04:29:49.349Z,9.60
2018-11-11T04:32:17.874Z,9.70
2018-11-11T04:34:46.434Z,9.70
2018-11-11T04:37:14.963Z,9.70
2018-11-11T04:39:43.759Z,9.60
2018-11-11T04:42:12.272Z,9.70
2018-11-11T04:44:40.795Z,9.60
2018-11-11T04:47:09.355Z,9.60
2018-11-11T04:49:37.873Z,9.60
2018-11-11T04:52:06.492Z,9.60
2018-11-11T04:54:35.076Z,9.60
2018-11-11T04:57:03.686Z,9.60
2018-11-11T04:59:32.267Z,9.60
2018-11-11T05:02:00.887Z,9.60
2018-11-11T05:04:29.532Z,9.60
2018-11-11T05:06:58.199Z,9.60
2018-11-11T05:09:26.839Z,9.60
2018-11-11T05:11:55.484Z,9.60
2018-11-11T05:14:24.166Z,9.60
2018-11-11T05:16:52.758Z,9.60
2018-11-11T05:19:21.415Z,9.60
2018-11-11T05:21:50.158Z,9.60
2018-11-11T05:24:18.889Z,9.50
2018-11-11T05:26:47.588Z,9.60
2018-11-11T05:29:16.171Z,9.60
2018-11-11T05:31:44.788Z,9.60
2018-11-11T05:34:13.992Z,9.50
2018-11-11T05:36:42.667Z,9.50
2018-11-11T05:39:12.743Z,9.50
2018-11-11T05:41:41.440Z,9.60
2018-11-11T05:44:10.488Z,9.50
2018-11-11T05:46:39.592Z,9.50
2018-11-11T05:49:08.115Z,9.60
2018-11-11T05:51:36.748Z,9.60
2018-11-11T05:54:05.392Z,9.50
2018-11-11T05:56:34.032Z,9.60
2018-11-11T05:59:02.890Z,9.60
2018-11-11T06:01:31.568Z,9.50
2018-11-11T06:04:00.166Z,9.50
2018-11-11T06:06:28.899Z,9.50
2018-11-11T06:08:57.533Z,9.60
2018-11-11T06:11:26.213Z,9.60
2018-11-11T06:13:54.924Z,9.60
2018-11-11T06:16:23.579Z,9.60
2018-11-11T06:18:53.211Z,9.60
2018-11-11T06:21:21.891Z,9.60
2018-11-11T06:23:50.637Z,9.50
2018-11-11T06:26:19.351Z,9.60
2018-11-11T06:28:48.127Z,9.60
2018-11-11T06:31:16.831Z,9.60
2018-11-11T06:33:45.575Z,9.50
2018-11-11T06:36:14.338Z,9.50
2018-11-11T06:38:43.123Z,9.50
2018-11-11T06:41:11.819Z,9.50
2018-11-11T06:43:40.586Z,9.50
2018-11-11T06:46:09.250Z,9.50
2018-11-11T06:48:37.952Z,9.50
2018-11-11T06:51:06.731Z,9.50
2018-11-11T06:53:35.441Z,9.50
2018-11-11T06:56:04.216Z,9.50
2018-11-11T06:58:33.007Z,9.50
2018-11-11T07:01:01.619Z,9.50
2018-11-11T07:03:43.676Z,9.50
2018-11-11T07:06:12.218Z,9.50
2018-11-11T07:08:40.923Z,9.50
2018-11-11T07:11:09.671Z,9.50
2018-11-11T07:13:38.394Z,9.50
2018-11-11T07:16:07.043Z,9.50
2018-11-11T07:18:35.647Z,9.50
2018-11-11T07:21:04.415Z,9.50
2018-11-11T07:23:33.122Z,9.50
2018-11-11T07:26:01.711Z,9.50
2018-11-11T07:28:30.482Z,9.50
2018-11-11T07:30:59.175Z,9.50
2018-11-11T07:33:28.011Z,9.50
2018-11-11T07:35:56.764Z,9.50
2018-11-11T07:38:25.353Z,9.50
2018-11-11T07:40:54.179Z,9.50
2018-11-11T07:43:22.872Z,9.50
2018-11-11T07:45:51.487Z,9.50
2018-11-11T07:48:20.610Z,9.50
2018-11-11T07:50:49.364Z,9.50
2018-11-11T07:53:18.063Z,9.60
2018-11-11T07:55:46.873Z,9.50
2018-11-11T07:58:15.846Z,9.50
2018-11-11T08:00:44.412Z,9.50
2018-11-11T08:03:13.099Z,9.50
2018-11-11T08:05:41.874Z,9.50
2018-11-11T08:08:10.567Z,9.50
2018-11-11T08:10:50.305Z,9.60
2018-11-11T08:13:18.994Z,9.60
2018-11-11T08:15:47.764Z,9.60
2018-11-11T08:18:16.712Z,9.60
2018-11-11T08:20:45.407Z,9.60
2018-11-11T08:23:14.047Z,9.70
2018-11-11T08:25:42.763Z,9.60
2018-11-11T08:28:11.455Z,9.70
2018-11-11T08:30:40.219Z,9.70
2018-11-11T08:33:08.911Z,9.70
2018-11-11T08:35:37.658Z,9.70
2018-11-11T08:38:11.955Z,9.70
2018-11-11T08:40:43.117Z,9.70
2018-11-11T08:43:15.431Z,9.70
2018-11-11T08:45:45.031Z,9.80
2018-11-11T08:48:13.745Z,9.80
2018-11-11T08:50:42.471Z,9.80
2018-11-11T08:53:11.135Z,9.80
2018-11-11T08:55:39.799Z,9.80
2018-11-11T09:00:41.215Z,9.90
2018-11-11T09:03:09.774Z,9.90
2018-11-11T09:05:38.368Z,9.90
2018-11-11T09:08:06.952Z,9.80
2018-11-11T09:10:35.588Z,9.90
2018-11-11T09:13:04.434Z,9.80
2018-11-11T09:15:33.473Z,9.80
2018-11-11T09:18:02.232Z,9.80
2018-11-11T09:20:31.399Z,9.80
2018-11-11T09:23:00.747Z,9.70
2018-11-11T09:25:29.560Z,9.70
2018-11-11T09:27:58.242Z,9.70
2018-11-11T09:30:27.033Z,9.70
2018-11-11T09:32:55.494Z,9.70
2018-11-11T09:35:24.155Z,9.70
2018-11-11T09:37:52.679Z,9.70
2018-11-11T09:40:21.365Z,9.70
2018-11-11T09:42:49.952Z,9.70
2018-11-11T09:45:18.711Z,9.70
2018-11-11T09:47:47.374Z,9.70
2018-11-11T09:50:16.854Z,9.70
2018-11-11T09:52:45.552Z,9.70
2018-11-11T09:55:14.507Z,9.60
2018-11-11T09:57:43.125Z,9.70
2018-11-11T10:00:18.949Z,9.70
2018-11-11T10:04:55.255Z,9.70
2018-11-11T10:07:59.061Z,9.70
2018-11-11T10:10:38.798Z,9.80
2018-11-11T10:13:26.403Z,9.80
2018-11-11T10:16:03.835Z,9.80
2018-11-11T10:18:40.147Z,9.70
2018-11-11T10:21:19.378Z,9.70
2018-11-11T10:24:06.351Z,9.70
2018-11-11T10:26:47.048Z,9.70
2018-11-11T10:29:23.783Z,9.70
2018-11-11T10:31:57.591Z,9.70
2018-11-11T10:34:30.292Z,9.70
2018-11-11T10:37:06.191Z,9.80
2018-11-11T10:39:41.831Z,9.70
2018-11-11T10:42:33.174Z,9.70
2018-11-11T10:45:09.255Z,9.80
2018-11-11T10:47:41.567Z,9.80
2018-11-11T10:50:15.538Z,9.80
2018-11-11T10:52:44.537Z,9.80
2018-11-11T10:55:13.259Z,9.80
2018-11-11T10:57:42.991Z,9.80
2018-11-11T11:00:16.963Z,9.90
2018-11-11T11:02:50.881Z,9.90
2018-11-11T11:05:19.500Z,10.00
2018-11-11T11:07:48.095Z,10.00
2018-11-11T11:10:16.704Z,10.00
2018-11-11T11:12:45.399Z,10.00
2018-11-11T11:15:13.955Z,10.00
2018-11-11T11:17:42.671Z,10.00
2018-11-11T11:20:11.370Z,10.00
2018-11-11T11:22:40.057Z,10.00
2018-11-11T11:25:11.035Z,10.00
2018-11-11T11:27:40.745Z,10.00
2018-11-11T11:30:11.324Z,10.00
2018-11-11T11:32:40.237Z,10.00
2018-11-11T11:35:10.102Z,10.00
2018-11-11T11:37:39.620Z,10.00
2018-11-11T11:40:09.355Z,10.00
2018-11-11T11:42:39.391Z,10.00
2018-11-11T11:45:09.482Z,10.00
2018-11-11T11:47:38.129Z,10.00
2018-11-11T11:50:08.456Z,10.00
2018-11-11T11:52:37.132Z,10.00
2018-11-11T11:55:06.194Z,10.00
2018-11-11T11:57:34.954Z,10.00
2018-11-11T12:00:03.684Z,10.10
2018-11-11T12:02:32.351Z,10.10
2018-11-11T12:05:01.158Z,10.10
2018-11-11T12:07:29.735Z,10.10
2018-11-11T12:09:58.390Z,10.10
2018-11-11T12:12:27.075Z,10.20
2018-11-11T12:14:55.727Z,10.20
2018-11-11T12:17:24.332Z,10.20
2018-11-11T12:19:53.103Z,10.20
2018-11-11T12:22:21.695Z,10.20
2018-11-11T12:24:51.143Z,10.20
2018-11-11T12:27:21.458Z,10.20
2018-11-11T12:29:50.155Z,10.20
2018-11-11T12:32:18.868Z,10.20
2018-11-11T12:34:47.404Z,10.20
2018-11-11T12:37:15.956Z,10.20
2018-11-11T12:39:44.550Z,10.20
2018-11-11T12:42:13.182Z,10.20
2018-11-11T12:44:41.776Z,10.20
2018-11-11T12:47:10.460Z,10.30
2018-11-11T12:49:39.052Z,10.30
2018-11-11T12:52:07.663Z,10.30
2018-11-11T12:54:36.319Z,10.30
2018-11-11T12:57:04.980Z,10.30
2018-11-11T12:59:33.547Z,10.40
2018-11-11T13:02:02.139Z,10.40
2018-11-11T13:04:30.863Z,10.40
2018-11-11T13:06:59.435Z,10.50
2018-11-11T13:09:28.109Z,10.50
2018-11-11T13:11:56.800Z,10.60
2018-11-11T13:14:25.336Z,10.60
2018-11-11T13:16:54.084Z,10.50
2018-11-11T13:19:22.808Z,10.60
2018-11-11T13:21:51.581Z,10.60
2018-11-11T13:24:20.172Z,10.60
2018-11-11T13:26:48.743Z,10.60
2018-11-11T13:29:17.367Z,10.60
2018-11-11T13:31:46.028Z,10.60
2018-11-11T13:34:14.661Z,10.60
2018-11-11T13:36:43.320Z,10.60
2018-11-11T13:39:13.324Z,10.60
2018-11-11T13:41:42.680Z,10.50
2018-11-11T13:44:11.304Z,10.50
2018-11-11T13:46:40.162Z,10.40
2018-11-11T13:49:08.579Z,10.40
2018-11-11T13:51:37.800Z,10.40
2018-11-11T13:54:06.722Z,10.30
2018-11-11T13:56:35.322Z,10.30
2018-11-11T13:59:03.916Z,10.20
2018-11-11T14:01:32.654Z,10.20
2018-11-11T14:04:01.236Z,10.20
2018-11-11T14:06:29.842Z,10.10
2018-11-11T14:08:58.478Z,10.10
2018-11-11T14:11:27.138Z,10.10
2018-11-11T14:13:56.071Z,10.00
2018-11-11T14:16:24.782Z,10.00
2018-11-11T14:18:53.709Z,9.90
2018-11-11T14:21:22.625Z,9.90
2018-11-11T14:23:51.265Z,9.90
2018-11-11T14:26:19.969Z,9.80
2018-11-11T14:28:48.664Z,9.80
2018-11-11T14:31:17.287Z,9.80
2018-11-11T14:33:46.019Z,9.80
2018-11-11T14:36:14.726Z,9.80
2018-11-11T14:38:43.426Z,9.80
2018-11-11T14:41:12.247Z,9.70
2018-11-11T14:43:40.912Z,9.70
2018-11-11T14:46:09.649Z,9.70
2018-11-11T14:48:38.351Z,9.70
2018-11-11T14:51:07.107Z,9.70
2018-11-11T14:53:35.861Z,9.70
2018-11-11T14:56:04.936Z,9.70
2018-11-11T14:58:33.782Z,9.70
2018-11-11T15:01:02.378Z,9.70
2018-11-11T15:03:31.011Z,9.60
2018-11-11T15:05:59.718Z,9.60
2018-11-11T15:08:28.389Z,9.60
2018-11-11T15:10:57.093Z,9.60
2018-11-11T15:13:25.779Z,9.50
2018-11-11T15:15:54.587Z,9.50
2018-11-11T15:18:23.268Z,9.50
2018-11-11T15:20:52.260Z,9.50
2018-11-11T15:23:20.818Z,9.50
2018-11-11T15:25:49.507Z,9.50
2018-11-11T15:28:18.222Z,9.50
2018-11-11T15:30:46.933Z,9.40
2018-11-11T15:33:15.580Z,9.50
2018-11-11T15:35:44.211Z,9.40
2018-11-11T15:38:12.903Z,9.40
2018-11-11T15:40:41.603Z,9.40
2018-11-11T15:43:10.279Z,9.40
2018-11-11T15:45:38.990Z,9.40
2018-11-11T15:48:07.978Z,9.40
2018-11-11T15:50:37.155Z,9.40
2018-11-11T15:53:07.348Z,9.40
2018-11-11T15:55:37.267Z,9.40
2018-11-11T15:58:06.357Z,9.40
2018-11-11T16:00:36.491Z,9.40
2018-11-11T16:03:05.453Z,9.40
2018-11-11T16:05:34.062Z,9.40
2018-11-11T16:08:03.250Z,9.40
2018-11-11T16:10:32.711Z,9.40
2018-11-11T16:13:01.495Z,9.40
2018-11-11T16:15:34.635Z,9.40
2018-11-11T16:18:05.154Z,9.40
2018-11-11T16:20:33.842Z,9.50
2018-11-11T16:23:03.620Z,9.50
2018-11-11T16:25:32.620Z,9.40
2018-11-11T16:28:01.252Z,9.50
2018-11-11T16:30:31.187Z,9.50
2018-11-11T16:33:00.503Z,9.50
2018-11-11T16:35:29.907Z,9.50
2018-11-11T16:37:59.114Z,9.50
2018-11-11T16:40:29.141Z,9.50
2018-11-11T16:42:58.097Z,9.50
2018-11-11T16:45:27.902Z,9.50
2018-11-11T16:47:56.543Z,9.50
2018-11-11T16:50:29.211Z,9.50
2018-11-11T16:52:59.413Z,9.50
2018-11-11T16:55:29.137Z,9.40
2018-11-11T16:57:57.723Z,9.50
2018-11-11T17:00:27.618Z,9.50
2018-11-11T17:02:56.919Z,9.40
2018-11-11T17:05:27.906Z,9.40
2018-11-11T17:07:56.575Z,9.50
2018-11-11T17:10:27.614Z,9.50
2018-11-11T17:12:57.516Z,9.50
2018-11-11T17:15:28.483Z,9.50
2018-11-11T17:17:57.143Z,9.50
2018-11-11T17:20:26.433Z,9.50
2018-11-11T17:22:56.437Z,9.50
2018-11-11T17:25:25.832Z,9.60
2018-11-11T17:27:54.583Z,9.50
2018-11-11T17:30:32.096Z,9.60
2018-11-11T17:33:01.415Z,9.60
2018-11-11T17:35:29.971Z,9.60
2018-11-11T17:37:58.636Z,9.60
2018-11-11T17:40:28.582Z,9.60
2018-11-11T17:42:57.538Z,9.60
2018-11-11T17:45:26.150Z,9.60
2018-11-11T17:47:54.987Z,9.60
2018-11-11T17:50:25.920Z,9.60
2018-11-11T17:52:54.493Z,9.60
2018-11-11T17:55:24.267Z,9.60
2018-11-11T17:57:52.807Z,9.70
2018-11-11T18:00:22.700Z,9.70
2018-11-11T18:02:51.372Z,9.70
2018-11-11T18:05:21.215Z,9.70
2018-11-11T18:07:49.871Z,9.70
2018-11-11T18:10:19.913Z,9.70
2018-11-11T18:12:49.030Z,9.70
2018-11-11T18:15:24.400Z,9.70
2018-11-11T18:17:53.139Z,9.70
2018-11-11T18:20:27.055Z,9.60
2018-11-11T18:22:56.433Z,9.60
2018-11-11T18:25:25.119Z,9.60
2018-11-11T18:27:54.665Z,9.60
2018-11-11T18:30:30.992Z,9.60
2018-11-11T18:32:59.688Z,9.60
2018-11-11T18:35:28.362Z,9.60
2018-11-11T18:37:57.131Z,9.60
2018-11-11T18:40:26.973Z,9.60
2018-11-11T18:42:55.723Z,9.50
2018-11-11T18:45:25.890Z,9.50
2018-11-11T18:47:54.564Z,9.40
2018-11-11T18:50:25.499Z,9.40
2018-11-11T18:52:54.135Z,9.40
2018-11-11T18:55:23.192Z,9.40
2018-11-11T18:57:51.896Z,9.40
2018-11-11T19:00:22.460Z,9.50
2018-11-11T19:02:51.915Z,9.50
2018-11-11T19:05:21.362Z,9.50
2018-11-11T19:07:50.304Z,9.50
2018-11-11T19:10:20.383Z,9.60
2018-11-11T19:12:50.304Z,9.60
2018-11-11T19:15:19.667Z,9.60
2018-11-11T19:17:49.691Z,9.60
2018-11-11T19:20:19.741Z,9.60
2018-11-11T19:22:48.404Z,9.60
2018-11-11T19:25:18.640Z,9.60
2018-11-11T19:27:48.445Z,9.60
2018-11-11T19:30:17.983Z,9.60
2018-11-11T19:32:47.265Z,9.60
2018-11-11T19:35:16.411Z,9.60
2018-11-11T19:37:46.275Z,9.70
2018-11-11T19:40:16.245Z,9.70
2018-11-11T19:42:45.291Z,9.70
2018-11-11T19:45:15.339Z,9.70
2018-11-11T19:47:44.395Z,9.70
2018-11-11T19:50:14.485Z,9.70
2018-11-11T19:52:44.547Z,9.70
2018-11-11T19:55:13.632Z,9.70
2018-11-11T19:57:42.603Z,9.70
2018-11-11T20:00:15.489Z,9.70
2018-11-11T20:02:45.456Z,9.70
2018-11-11T20:05:14.844Z,9.70
2018-11-11T20:07:44.801Z,9.70
2018-11-11T20:10:14.488Z,9.70
2018-11-11T20:12:43.225Z,9.70
2018-11-11T20:15:28.043Z,9.70
2018-11-11T20:17:56.715Z,9.70
2018-11-11T20:20:27.112Z,9.70
2018-11-11T20:22:55.796Z,9.80
2018-11-11T20:25:24.398Z,9.80
2018-11-11T20:27:52.919Z,9.80
2018-11-11T20:30:25.818Z,9.80
2018-11-11T20:32:54.493Z,9.80
2018-11-11T20:35:24.688Z,9.80
2018-11-11T20:37:53.323Z,9.80
2018-11-11T20:40:22.899Z,9.80
2018-11-11T20:42:52.008Z,9.80
2018-11-11T20:45:21.899Z,9.80
2018-11-11T20:47:51.090Z,9.80
2018-11-11T20:50:20.947Z,9.90
2018-11-11T20:52:51.294Z,9.90
2018-11-11T20:55:20.358Z,9.90
2018-11-11T20:57:49.005Z,9.90
2018-11-11T21:00:20.846Z,9.90
2018-11-11T21:02:49.583Z,9.90
2018-11-11T21:05:19.471Z,9.90
2018-11-11T21:07:48.213Z,9.90
2018-11-11T21:10:18.217Z,9.90
2018-11-11T21:12:46.839Z,10.00
2018-11-11T21:15:23.582Z,10.00
2018-11-11T21:17:52.225Z,10.00
2018-11-11T21:20:23.215Z,10.00
2018-11-11T21:22:51.873Z,10.00
2018-11-11T21:25:20.587Z,10.00
2018-11-11T21:27:50.010Z,10.00
2018-11-11T21:30:20.895Z,10.00
2018-11-11T21:32:49.803Z,10.00
2018-11-11T21:35:18.429Z,10.00
2018-11-11T21:37:47.055Z,10.00
2018-11-11T21:40:20.167Z,10.00
2018-11-11T21:42:49.600Z,10.00
2018-11-11T21:45:19.435Z,10.00
2018-11-11T21:47:48.142Z,10.00
2018-11-11T21:50:18.551Z,10.00
2018-11-11T21:52:51.494Z,9.90
2018-11-11T21:55:20.127Z,9.90
2018-11-11T21:57:48.755Z,9.90
2018-11-11T22:00:17.459Z,9.90
2018-11-11T22:02:46.242Z,9.90
2018-11-11T22:05:14.831Z,9.90
2018-11-11T22:07:43.463Z,9.90
2018-11-11T22:10:13.810Z,9.90
2018-11-11T22:12:42.499Z,9.90
2018-11-11T22:15:12.305Z,9.80
2018-11-11T22:17:41.988Z,9.90
2018-11-11T22:20:11.067Z,9.80
2018-11-11T22:22:40.286Z,9.80
2018-11-11T22:25:08.831Z,9.90
2018-11-11T22:27:37.515Z,9.90
2018-11-11T22:30:09.062Z,9.80
2018-11-11T22:32:37.911Z,9.80
2018-11-11T22:35:07.170Z,9.80
2018-11-11T22:37:35.915Z,9.80
2018-11-11T22:40:05.759Z,9.80
2018-11-11T22:42:35.471Z,9.80
2018-11-11T22:45:04.148Z,9.80
2018-11-11T22:47:32.769Z,9.80
2018-11-11T22:50:01.433Z,9.80
2018-11-11T22:52:30.249Z,9.80
2018-11-11T22:54:58.891Z,9.80
2018-11-11T22:57:27.713Z,9.80
2018-11-11T22:59:56.371Z,9.80
2018-11-11T23:02:25.205Z,9.90
2018-11-11T23:04:53.960Z,9.90
2018-11-11T23:07:22.695Z,9.80
2018-11-11T23:09:51.436Z,9.80
2018-11-11T23:12:20.175Z,9.90
2018-11-11T23:14:48.844Z,9.90
2018-11-11T23:17:17.581Z,9.90
2018-11-11T23:19:46.280Z,9.80
2018-11-11T23:22:14.964Z,9.80
2018-11-11T23:24:43.687Z,9.90
2018-11-11T23:27:12.477Z,9.90
2018-11-11T23:29:41.267Z,9.90
2018-11-11T23:32:09.916Z,9.90
2018-11-11T23:34:38.791Z,9.90
2018-11-11T23:37:08.162Z,9.90
2018-11-11T23:39:36.986Z,9.90
2018-11-11T23:42:06.243Z,9.90
2018-11-11T23:44:35.025Z,9.90
2018-11-11T23:47:03.727Z,9.90
2018-11-11T23:49:32.475Z,9.90
2018-11-11T23:52:01.238Z,9.90
2018-11-11T23:54:30.028Z,9.90
2018-11-11T23:56:58.783Z,9.90
2018-11-11T23:59:27.543Z,9.90
